createdAt,value
2023-05-25T00:01:05.068Z,7.82
2023-05-25T00:03:32.629Z,5.95
2023-05-25T00:06:03.566Z,7.05
2023-05-25T00:08:30.745Z,7.47
2023-05-25T00:10:57.740Z,7.38
2023-05-25T00:13:24.850Z,7.75
2023-05-25T00:15:51.978Z,7.00
2023-05-25T00:18:19.100Z,8.60
2023-05-25T00:20:47.644Z,7.93
2023-05-25T00:23:15.017Z,7.40
2023-05-25T00:25:42.798Z,7.65
2023-05-25T00:28:11.682Z,10.10
2023-05-25T00:30:38.998Z,7.72
2023-05-25T00:33:06.629Z,7.18
2023-05-25T00:35:33.826Z,8.52
2023-05-25T00:38:00.984Z,8.75
2023-05-25T00:40:28.080Z,8.73
2023-05-25T00:42:56.361Z,9.73
2023-05-25T00:45:23.524Z,9.77
2023-05-25T00:47:54.515Z,9.20
2023-05-25T00:50:31.905Z,8.27
2023-05-25T00:52:59.170Z,8.40
2023-05-25T00:55:33.696Z,9.45
2023-05-25T00:58:02.756Z,10.45
2023-05-25T01:00:32.789Z,9.88
2023-05-25T01:03:01.256Z,10.57
2023-05-25T01:05:30.692Z,9.43
2023-05-25T01:08:02.022Z,11.25
2023-05-25T01:10:33.373Z,7.72
2023-05-25T01:13:02.948Z,8.20
2023-05-25T01:15:32.952Z,7.82
2023-05-25T01:18:00.118Z,7.07
2023-05-25T01:20:32.320Z,7.55
2023-05-25T01:23:05.237Z,7.63
2023-05-25T01:25:40.314Z,8.27
2023-05-25T01:28:11.676Z,8.48
2023-05-25T01:30:42.434Z,8.90
2023-05-25T01:33:11.065Z,8.85
2023-05-25T01:35:39.523Z,9.02
2023-05-25T01:38:07.169Z,8.57
2023-05-25T01:40:34.384Z,13.73
2023-05-25T01:43:01.648Z,12.73
2023-05-25T01:45:30.213Z,9.90
2023-05-25T01:48:20.531Z,7.78
2023-05-25T01:51:05.154Z,7.95
2023-05-25T01:53:40.636Z,8.80
2023-05-25T01:56:09.709Z,7.68
2023-05-25T01:58:41.051Z,8.43
2023-05-25T02:01:10.249Z,10.10
2023-05-25T02:03:38.925Z,10.52
2023-05-25T02:06:06.194Z,8.73
2023-05-25T02:08:35.275Z,8.23
2023-05-25T02:11:02.307Z,8.75
2023-05-25T02:13:29.477Z,8.93
2023-05-25T02:15:56.752Z,7.50
2023-05-25T02:18:23.999Z,9.25
2023-05-25T02:20:54.368Z,9.07
2023-05-25T02:23:21.801Z,14.57
2023-05-25T02:25:48.969Z,29.42
2023-05-25T02:28:16.563Z,23.85
2023-05-25T02:30:43.784Z,30.95
2023-05-25T02:33:10.892Z,25.02
2023-05-25T02:35:38.598Z,34.38
2023-05-25T02:38:05.765Z,33.20
2023-05-25T02:40:32.753Z,34.20
2023-05-25T02:42:59.791Z,41.70
2023-05-25T02:45:26.822Z,41.90
2023-05-25T02:47:53.846Z,52.42
2023-05-25T02:50:23.107Z,61.10
2023-05-25T02:52:53.390Z,50.97
2023-05-25T02:55:20.477Z,44.28
2023-05-25T02:57:47.731Z,48.72
2023-05-25T03:00:29.842Z,55.15
2023-05-25T03:02:57.713Z,54.83
2023-05-25T03:05:24.729Z,56.25
2023-05-25T03:07:52.581Z,55.35
2023-05-25T03:10:19.739Z,55.97
2023-05-25T03:12:46.796Z,60.53
2023-05-25T03:15:14.166Z,58.80
2023-05-25T03:17:41.541Z,61.35
2023-05-25T03:20:10.644Z,68.18
2023-05-25T03:22:41.945Z,71.07
2023-05-25T03:25:12.585Z,66.82
2023-05-25T03:27:40.082Z,66.72
2023-05-25T03:30:09.225Z,69.70
2023-05-25T03:32:36.749Z,67.35
2023-05-25T03:35:05.564Z,72.60
2023-05-25T03:37:33.076Z,70.15
2023-05-25T03:40:00.242Z,66.95
2023-05-25T03:42:28.490Z,66.10
2023-05-25T03:44:55.558Z,65.05
2023-05-25T03:47:23.429Z,66.90
2023-05-25T03:49:50.466Z,65.32
2023-05-25T03:52:17.463Z,66.88
2023-05-25T03:54:44.480Z,79.05
2023-05-25T03:57:11.532Z,81.25
2023-05-25T03:59:38.505Z,80.72
2023-05-25T04:02:05.551Z,86.13
2023-05-25T04:04:32.740Z,79.50
2023-05-25T04:06:59.978Z,75.43
2023-05-25T04:09:27.049Z,69.47
2023-05-25T04:11:54.074Z,68.18
2023-05-25T04:14:21.753Z,75.22
2023-05-25T04:16:49.566Z,73.78
2023-05-25T04:19:17.141Z,68.65
2023-05-25T04:21:44.154Z,63.42
2023-05-25T04:24:12.097Z,66.70
2023-05-25T04:26:40.450Z,63.10
2023-05-25T04:29:10.180Z,63.15
2023-05-25T04:32:00.410Z,51.28
2023-05-25T04:34:36.386Z,47.88
2023-05-25T04:37:14.238Z,39.92
2023-05-25T04:39:41.404Z,31.50
2023-05-25T04:42:08.562Z,32.13
2023-05-25T04:44:36.216Z,31.65
2023-05-25T04:47:05.882Z,30.33
2023-05-25T04:49:34.189Z,32.40
2023-05-25T04:52:01.286Z,34.22
2023-05-25T04:54:30.588Z,31.52
2023-05-25T04:57:00.304Z,33.38
2023-05-25T04:59:27.447Z,32.88
2023-05-25T05:01:54.503Z,35.03
2023-05-25T05:04:21.591Z,35.78
2023-05-25T05:06:49.475Z,36.00
2023-05-25T05:09:22.913Z,34.25
2023-05-25T05:11:50.101Z,34.03
2023-05-25T05:14:18.855Z,35.95
2023-05-25T05:16:48.380Z,28.35
2023-05-25T05:19:15.911Z,29.63
2023-05-25T05:21:43.111Z,27.52
2023-05-25T05:24:10.304Z,28.30
2023-05-25T05:26:55.245Z,27.27
2023-05-25T05:29:28.376Z,26.73
2023-05-25T05:31:56.132Z,27.45
2023-05-25T05:34:23.528Z,27.67
2023-05-25T05:36:57.929Z,27.20
2023-05-25T05:39:27.614Z,27.13
2023-05-25T05:41:55.889Z,26.05
2023-05-25T05:44:26.001Z,25.80
2023-05-25T05:47:02.408Z,25.13
2023-05-25T05:49:31.474Z,24.83
2023-05-25T05:51:59.991Z,24.25
2023-05-25T05:54:28.133Z,23.73
2023-05-25T05:56:57.409Z,24.40
2023-05-25T05:59:24.630Z,25.17
2023-05-25T06:01:51.770Z,24.80
2023-05-25T06:04:19.635Z,23.80
2023-05-25T06:06:47.101Z,21.42
2023-05-25T06:09:14.568Z,22.63
2023-05-25T06:11:41.950Z,23.55
2023-05-25T06:14:09.857Z,23.17
2023-05-25T06:16:37.489Z,24.58
2023-05-25T06:19:04.635Z,24.80
2023-05-25T06:21:31.714Z,24.35
2023-05-25T06:23:58.806Z,24.05
2023-05-25T06:26:26.124Z,22.70
2023-05-25T06:28:53.393Z,22.30
2023-05-25T06:31:20.448Z,21.33
2023-05-25T06:33:47.492Z,21.52
2023-05-25T06:36:15.737Z,21.95
2023-05-25T06:38:44.098Z,20.98
2023-05-25T06:41:15.227Z,19.13
2023-05-25T06:43:43.410Z,17.75
2023-05-25T06:46:18.481Z,17.73
2023-05-25T06:48:46.318Z,18.10
2023-05-25T06:51:14.054Z,17.27
2023-05-25T06:53:41.130Z,17.02
2023-05-25T06:56:08.277Z,11.75
2023-05-25T06:58:35.349Z,11.80
2023-05-25T07:01:02.952Z,10.55
2023-05-25T07:03:30.408Z,11.32
2023-05-25T07:05:57.528Z,13.48
2023-05-25T07:08:24.581Z,14.43
2023-05-25T07:10:51.630Z,10.90
2023-05-25T07:13:18.677Z,10.20
2023-05-25T07:15:46.069Z,10.10
2023-05-25T07:18:13.410Z,7.10
2023-05-25T07:20:42.691Z,8.02
2023-05-25T07:23:10.960Z,9.68
2023-05-25T07:25:41.734Z,9.13
2023-05-25T07:28:09.047Z,7.43
2023-05-25T07:30:36.282Z,9.25
2023-05-25T07:33:03.630Z,7.88
2023-05-25T07:35:30.754Z,7.20
2023-05-25T07:38:02.768Z,7.30
2023-05-25T07:40:30.290Z,6.38
2023-05-25T07:42:57.419Z,7.03
2023-05-25T07:45:24.617Z,7.05
2023-05-25T07:47:51.836Z,7.30
2023-05-25T07:50:19.143Z,7.30
2023-05-25T07:52:46.623Z,6.00
2023-05-25T07:55:14.051Z,5.85
2023-05-25T07:57:41.157Z,5.32
2023-05-25T08:00:09.451Z,6.43
2023-05-25T08:02:42.679Z,3.45
2023-05-25T08:05:10.298Z,3.50
2023-05-25T08:07:39.459Z,5.10
2023-05-25T08:10:08.835Z,5.47
2023-05-25T08:12:47.687Z,5.10
2023-05-25T08:15:16.127Z,4.45
2023-05-25T08:17:43.132Z,4.82
2023-05-25T08:20:10.826Z,4.07
2023-05-25T08:22:38.149Z,3.58
2023-05-25T08:25:05.602Z,3.10
2023-05-25T08:27:35.440Z,2.80
2023-05-25T08:30:06.021Z,3.22
2023-05-25T08:32:33.520Z,3.55
2023-05-25T08:35:02.036Z,3.15
2023-05-25T08:37:29.582Z,3.45
2023-05-25T08:39:56.628Z,3.53
2023-05-25T08:42:24.165Z,2.88
2023-05-25T08:44:51.300Z,3.70
2023-05-25T08:47:22.772Z,3.72
2023-05-25T08:49:51.050Z,3.83
2023-05-25T08:52:26.643Z,3.50
2023-05-25T08:54:57.831Z,3.38
2023-05-25T08:57:37.371Z,2.75
2023-05-25T09:00:13.362Z,2.70
2023-05-25T09:02:51.749Z,3.78
2023-05-25T09:05:19.461Z,4.00
2023-05-25T09:07:47.555Z,3.67
2023-05-25T09:10:15.360Z,2.13
2023-05-25T09:12:43.886Z,2.63
2023-05-25T09:15:12.347Z,2.40
2023-05-25T09:17:41.405Z,2.67
2023-05-25T09:20:14.064Z,2.90
2023-05-25T09:22:44.418Z,2.17
2023-05-25T09:25:13.647Z,2.35
2023-05-25T09:27:42.365Z,3.15
2023-05-25T09:30:09.729Z,3.60
2023-05-25T09:32:36.818Z,4.00
2023-05-25T09:35:11.939Z,3.83
2023-05-25T09:37:40.555Z,4.68
2023-05-25T09:40:09.378Z,4.20
2023-05-25T09:42:37.575Z,5.40
2023-05-25T09:45:05.865Z,4.82
2023-05-25T09:47:33.185Z,6.28
2023-05-25T09:50:00.506Z,5.45
2023-05-25T09:52:27.776Z,4.13
2023-05-25T09:54:56.338Z,4.75
2023-05-25T09:57:23.417Z,3.80
2023-05-25T09:59:50.489Z,3.55
2023-05-25T10:02:17.525Z,3.17
2023-05-25T10:04:44.693Z,3.25
2023-05-25T10:07:13.662Z,3.17
2023-05-25T10:09:43.453Z,3.55
2023-05-25T10:12:12.033Z,4.10
2023-05-25T10:14:40.465Z,4.90
2023-05-25T10:17:11.741Z,4.78
2023-05-25T10:19:43.030Z,4.55
2023-05-25T10:22:51.629Z,4.72
2023-05-25T10:25:40.130Z,3.80
2023-05-25T10:28:31.339Z,3.30
2023-05-25T10:31:00.335Z,2.38
2023-05-25T10:38:37.746Z,2.40
2023-05-25T10:41:06.034Z,2.72
2023-05-25T10:43:33.641Z,3.53
2023-05-25T10:46:01.303Z,5.88
2023-05-25T10:48:46.509Z,4.40
2023-05-25T10:51:14.419Z,4.43
2023-05-25T10:53:46.072Z,3.95
2023-05-25T10:56:14.387Z,4.78
2023-05-25T10:58:44.178Z,3.90
2023-05-25T11:01:13.189Z,3.90
2023-05-25T11:03:55.099Z,3.95
2023-05-25T11:06:24.312Z,4.10
2023-05-25T11:08:59.364Z,4.10
2023-05-25T11:11:47.130Z,3.92
2023-05-25T11:14:24.352Z,3.10
2023-05-25T11:17:18.425Z,3.72
2023-05-25T11:19:54.881Z,3.00
2023-05-25T11:22:33.477Z,2.40
2023-05-25T11:25:03.069Z,2.10
2023-05-25T11:27:32.276Z,2.08
2023-05-25T11:30:00.536Z,2.38
2023-05-25T11:32:28.556Z,2.30
2023-05-25T11:34:58.649Z,1.98
2023-05-25T11:37:31.454Z,2.47
2023-05-25T11:39:58.994Z,2.28
2023-05-25T11:42:26.568Z,2.42
2023-05-25T11:44:53.835Z,2.65
2023-05-25T11:47:25.204Z,2.63
2023-05-25T11:49:55.762Z,2.72
2023-05-25T11:52:23.650Z,3.55
2023-05-25T11:54:51.137Z,3.42
2023-05-25T11:57:26.293Z,3.88
2023-05-25T12:00:00.416Z,3.70
2023-05-25T12:02:27.733Z,3.50
2023-05-25T12:04:55.415Z,3.28
2023-05-25T12:07:23.777Z,2.47
2023-05-25T12:09:50.856Z,2.83
2023-05-25T12:12:18.064Z,2.55
2023-05-25T12:14:49.635Z,4.38
2023-05-25T12:17:18.576Z,3.30
2023-05-25T12:19:46.042Z,2.95
2023-05-25T12:22:14.025Z,3.28
2023-05-25T12:24:41.573Z,3.03
2023-05-25T12:27:19.484Z,2.97
2023-05-25T12:29:47.887Z,3.00
2023-05-25T12:32:15.440Z,3.50
2023-05-25T12:34:43.855Z,2.17
2023-05-25T12:37:21.991Z,2.38
2023-05-25T12:39:49.260Z,1.85
2023-05-25T12:42:17.305Z,2.20
2023-05-25T12:44:46.807Z,3.38
2023-05-25T12:47:28.272Z,2.28
2023-05-25T12:50:15.582Z,3.10
2023-05-25T12:52:44.408Z,2.88
2023-05-25T12:55:41.689Z,2.72
2023-05-25T12:58:08.744Z,2.92
2023-05-25T13:00:37.974Z,2.85
2023-05-25T13:03:09.456Z,3.70
2023-05-25T13:05:38.294Z,3.42
2023-05-25T13:08:06.444Z,2.55
2023-05-25T13:10:34.285Z,2.40
2023-05-25T13:13:01.482Z,1.90
2023-05-25T13:15:29.029Z,2.15
2023-05-25T13:17:58.770Z,2.00
2023-05-25T13:20:27.311Z,1.92
2023-05-25T13:22:58.643Z,2.17
2023-05-25T13:25:28.083Z,2.08
2023-05-25T13:27:58.282Z,2.20
2023-05-25T13:30:26.564Z,2.30
2023-05-25T13:32:53.986Z,2.17
2023-05-25T13:35:41.823Z,1.83
2023-05-25T13:38:10.727Z,2.28
2023-05-25T13:40:37.784Z,2.40
2023-05-25T13:43:05.013Z,2.17
2023-05-25T13:45:32.075Z,2.05
2023-05-25T13:47:59.360Z,1.90
2023-05-25T13:50:26.601Z,1.90
2023-05-25T13:52:54.290Z,1.90
2023-05-25T13:55:21.412Z,1.58
2023-05-25T13:57:48.610Z,1.42
2023-05-25T14:00:15.862Z,1.70
2023-05-25T14:02:43.239Z,1.58
2023-05-25T14:05:10.926Z,1.70
2023-05-25T14:07:39.931Z,1.35
2023-05-25T14:10:08.302Z,1.67
2023-05-25T14:12:36.792Z,1.70
2023-05-25T14:15:04.348Z,1.50
2023-05-25T14:17:31.426Z,1.52
2023-05-25T14:19:59.211Z,1.48
2023-05-25T14:22:28.094Z,1.20
2023-05-25T14:24:55.228Z,1.48
2023-05-25T14:27:22.436Z,1.73
2023-05-25T14:29:52.354Z,1.23
2023-05-25T14:32:19.579Z,1.50
2023-05-25T14:34:46.668Z,2.38
2023-05-25T14:37:13.695Z,1.50
2023-05-25T14:39:40.654Z,1.50
2023-05-25T14:42:07.947Z,1.30
2023-05-25T14:44:34.957Z,1.75
2023-05-25T14:47:02.003Z,1.33
2023-05-25T14:49:28.995Z,1.42
2023-05-25T14:51:56.054Z,1.10
2023-05-25T14:54:23.086Z,1.17
2023-05-25T14:56:50.165Z,1.15
2023-05-25T14:59:17.325Z,1.10
2023-05-25T15:01:46.631Z,1.30
2023-05-25T15:04:14.300Z,1.25
2023-05-25T15:06:41.744Z,1.60
2023-05-25T15:09:08.741Z,1.48
2023-05-25T15:11:35.824Z,1.60
2023-05-25T15:14:02.875Z,2.72
2023-05-25T15:16:29.981Z,2.33
2023-05-25T15:18:57.046Z,3.65
2023-05-25T15:21:25.638Z,4.88
2023-05-25T15:23:52.852Z,4.40
2023-05-25T15:26:19.891Z,4.60
2023-05-25T15:28:46.943Z,4.30
2023-05-25T15:31:13.953Z,3.35
2023-05-25T15:33:51.407Z,2.20
2023-05-25T15:36:23.677Z,2.70
2023-05-25T15:38:50.795Z,2.60
2023-05-25T15:41:17.917Z,2.70
2023-05-25T15:43:54.791Z,3.33
2023-05-25T15:46:21.925Z,2.10
2023-05-25T15:48:49.021Z,2.42
2023-05-25T15:51:16.141Z,1.27
2023-05-25T15:53:43.125Z,2.10
2023-05-25T15:56:10.556Z,1.65
2023-05-25T15:58:37.609Z,1.67
2023-05-25T16:01:05.583Z,1.60
2023-05-25T16:03:32.737Z,1.85
2023-05-25T16:05:59.956Z,1.17
2023-05-25T16:08:26.977Z,1.40
2023-05-25T16:10:54.004Z,1.45
2023-05-25T16:13:21.102Z,1.50
2023-05-25T16:15:48.306Z,1.80
2023-05-25T16:18:16.779Z,1.70
2023-05-25T16:20:44.177Z,1.65
2023-05-25T16:23:11.517Z,2.85
2023-05-25T16:25:38.512Z,3.22
2023-05-25T16:28:05.593Z,2.85
2023-05-25T16:30:32.642Z,2.85
2023-05-25T16:32:59.711Z,2.78
2023-05-25T16:35:26.813Z,3.42
2023-05-25T16:37:53.813Z,2.60
2023-05-25T16:40:21.027Z,3.05
2023-05-25T16:42:48.145Z,2.70
2023-05-25T16:45:15.472Z,3.08
2023-05-25T16:47:42.520Z,3.20
2023-05-25T16:50:09.809Z,3.03
2023-05-25T16:52:36.818Z,3.30
2023-05-25T16:55:04.119Z,4.45
2023-05-25T16:57:31.180Z,3.63
2023-05-25T16:59:58.181Z,3.60
2023-05-25T17:02:25.289Z,3.58
2023-05-25T17:04:52.514Z,4.60
2023-05-25T17:07:19.589Z,3.40
2023-05-25T17:09:46.710Z,4.40
2023-05-25T17:12:13.703Z,4.05
2023-05-25T17:14:40.746Z,4.53
2023-05-25T17:17:07.764Z,3.60
2023-05-25T17:19:34.938Z,3.47
2023-05-25T17:22:01.974Z,2.65
2023-05-25T17:24:29.030Z,1.95
2023-05-25T17:26:56.296Z,1.75
2023-05-25T17:29:23.356Z,1.50
2023-05-25T17:31:50.595Z,2.22
2023-05-25T17:34:17.730Z,2.00
2023-05-25T17:36:44.802Z,2.38
2023-05-25T17:39:11.897Z,1.90
2023-05-25T17:41:39.002Z,2.80
2023-05-25T17:44:06.156Z,2.63
2023-05-25T17:46:33.384Z,2.83
2023-05-25T17:49:00.573Z,3.20
2023-05-25T17:51:27.558Z,3.22
2023-05-25T17:53:54.592Z,4.35
2023-05-25T17:56:22.377Z,4.93
2023-05-25T17:58:49.503Z,6.22
2023-05-25T18:01:16.879Z,5.55
2023-05-25T18:03:44.100Z,5.13
2023-05-25T18:06:11.274Z,5.20
2023-05-25T18:08:38.247Z,3.17
2023-05-25T18:11:05.840Z,2.92
2023-05-25T18:13:32.982Z,3.05
2023-05-25T18:16:00.165Z,1.92
2023-05-25T18:18:28.859Z,2.13
2023-05-25T18:20:55.925Z,1.90
2023-05-25T18:23:22.911Z,1.85
2023-05-25T18:25:50.036Z,1.60
2023-05-25T18:28:17.062Z,2.00
2023-05-25T18:30:44.404Z,1.88
2023-05-25T18:33:11.517Z,1.80
2023-05-25T18:35:38.746Z,2.38
2023-05-25T18:38:06.882Z,2.33
2023-05-25T18:40:34.054Z,2.15
2023-05-25T18:43:01.211Z,2.20
2023-05-25T18:45:28.310Z,2.55
2023-05-25T18:47:55.560Z,2.83
2023-05-25T18:50:22.634Z,1.92
2023-05-25T18:52:51.499Z,1.48
2023-05-25T18:55:19.295Z,3.22
2023-05-25T18:57:46.960Z,1.85
2023-05-25T19:00:14.649Z,1.85
2023-05-25T19:02:41.768Z,1.40
2023-05-25T19:05:11.886Z,1.60
2023-05-25T19:07:58.375Z,1.70
2023-05-25T19:10:27.039Z,1.75
2023-05-25T19:12:54.178Z,1.45
2023-05-25T19:15:21.337Z,1.40
2023-05-25T19:17:48.377Z,1.42
2023-05-25T19:20:16.101Z,1.30
2023-05-25T19:22:43.556Z,1.52
2023-05-25T19:25:10.648Z,2.03
2023-05-25T19:27:37.740Z,1.92
2023-05-25T19:30:05.182Z,1.95
2023-05-25T19:32:32.384Z,2.15
2023-05-25T19:34:59.399Z,2.30
2023-05-25T19:37:26.679Z,2.47
2023-05-25T19:39:53.718Z,2.08
2023-05-25T19:42:21.022Z,3.88
2023-05-25T19:44:48.149Z,15.95
2023-05-25T19:47:15.270Z,1.98
2023-05-25T19:49:42.943Z,1.60
2023-05-25T19:52:10.005Z,2.13
2023-05-25T19:54:37.004Z,3.50
2023-05-25T19:57:04.063Z,4.18
2023-05-25T19:59:31.568Z,3.10
2023-05-25T20:01:58.866Z,2.95
2023-05-25T20:04:26.173Z,2.33
2023-05-25T20:06:54.005Z,2.53
2023-05-25T20:09:29.896Z,2.47
2023-05-25T20:11:58.361Z,1.90
2023-05-25T20:14:25.563Z,2.22
2023-05-25T20:16:55.377Z,1.83
2023-05-25T20:19:23.498Z,2.10
2023-05-25T20:21:50.971Z,2.03
2023-05-25T20:24:18.378Z,2.10
2023-05-25T20:26:45.441Z,2.15
2023-05-25T20:29:12.557Z,1.85
2023-05-25T20:31:40.558Z,1.60
2023-05-25T20:34:07.813Z,1.70
2023-05-25T20:36:34.825Z,1.80
2023-05-25T20:39:03.249Z,2.22
2023-05-25T20:41:30.505Z,2.53
2023-05-25T20:43:57.965Z,1.60
2023-05-25T20:46:25.207Z,2.05
2023-05-25T20:48:53.576Z,1.90
2023-05-25T20:51:21.990Z,2.10
2023-05-25T20:53:49.062Z,2.22
2023-05-25T20:56:16.243Z,2.65
2023-05-25T20:58:43.343Z,2.05
2023-05-25T21:01:10.448Z,2.17
2023-05-25T21:03:37.599Z,1.98
2023-05-25T21:06:04.843Z,3.13
2023-05-25T21:08:32.814Z,2.90
2023-05-25T21:10:59.839Z,3.25
2023-05-25T21:13:26.878Z,3.13
2023-05-25T21:15:53.980Z,2.65
2023-05-25T21:18:21.031Z,2.83
2023-05-25T21:20:48.020Z,2.75
2023-05-25T21:23:15.067Z,2.17
2023-05-25T21:25:42.069Z,2.00
2023-05-25T21:28:10.567Z,2.30
2023-05-25T21:30:37.606Z,2.38
2023-05-25T21:33:04.684Z,2.38
2023-05-25T21:35:31.788Z,2.33
2023-05-25T21:37:58.814Z,2.38
2023-05-25T21:40:25.887Z,2.22
2023-05-25T21:42:56.090Z,2.40
2023-05-25T21:45:23.174Z,2.47
2023-05-25T21:47:50.250Z,2.45
2023-05-25T21:50:17.421Z,2.55
2023-05-25T21:52:44.393Z,2.20
2023-05-25T21:55:11.354Z,2.53
2023-05-25T21:57:38.369Z,2.08
2023-05-25T22:00:06.690Z,3.40
2023-05-25T22:02:39.744Z,3.25
2023-05-25T22:05:07.308Z,3.08
2023-05-25T22:07:34.337Z,3.13
2023-05-25T22:10:01.397Z,2.90
2023-05-25T22:12:28.423Z,2.70
2023-05-25T22:14:55.441Z,2.63
2023-05-25T22:17:22.608Z,3.60
2023-05-25T22:20:03.319Z,2.85
2023-05-25T22:22:34.771Z,2.95
2023-05-25T22:25:01.897Z,2.50
2023-05-25T22:27:28.931Z,2.90
2023-05-25T22:29:56.124Z,2.83
2023-05-25T22:32:23.458Z,2.90
2023-05-25T22:34:50.633Z,2.63
2023-05-25T22:37:17.777Z,3.15
2023-05-25T22:39:45.089Z,2.80
2023-05-25T22:42:12.294Z,3.58
2023-05-25T22:44:39.388Z,3.20
2023-05-25T22:47:07.067Z,2.80
2023-05-25T22:49:41.218Z,2.70
2023-05-25T22:52:11.409Z,3.10
2023-05-25T22:54:38.510Z,3.13
2023-05-25T22:57:06.552Z,2.90
2023-05-25T22:59:33.603Z,3.28
2023-05-25T23:02:01.108Z,3.10
2023-05-25T23:04:28.186Z,3.40
2023-05-25T23:06:55.271Z,4.45
2023-05-25T23:09:22.299Z,3.97
2023-05-25T23:11:49.338Z,3.60
2023-05-25T23:14:16.314Z,3.83
2023-05-25T23:16:44.578Z,3.83
2023-05-25T23:19:11.725Z,3.35
2023-05-25T23:21:38.753Z,3.58
2023-05-25T23:24:06.270Z,3.53
2023-05-25T23:26:33.276Z,3.30
2023-05-25T23:29:00.353Z,3.00
2023-05-25T23:31:27.419Z,3.08
2023-05-25T23:33:54.474Z,3.10
2023-05-25T23:36:21.536Z,2.88
2023-05-25T23:38:48.521Z,2.45
2023-05-25T23:41:16.623Z,2.45
2023-05-25T23:43:43.807Z,2.15
2023-05-25T23:46:10.876Z,2.10
2023-05-25T23:48:37.865Z,2.45
2023-05-25T23:51:07.562Z,2.50
2023-05-25T23:53:34.646Z,2.60
2023-05-25T23:56:01.657Z,2.60
2023-05-25T23:58:28.809Z,2.72
